createdAt,value
2022-08-07T00:00:25.562Z,96907.88
2022-08-07T00:02:53.687Z,96909.41
2022-08-07T00:05:21.012Z,96908.28
2022-08-07T00:07:58.224Z,96900.19
2022-08-07T00:10:29.614Z,96902.47
2022-08-07T00:13:00.727Z,96908.97
2022-08-07T00:15:38.123Z,96915.06
2022-08-07T00:18:18.793Z,96906.69
2022-08-07T00:20:47.740Z,96912.78
2022-08-07T00:23:14.914Z,96924.56
2022-08-07T00:25:52.536Z,96920.00
2022-08-07T00:28:25.688Z,96926.88
2022-08-07T00:31:01.167Z,96918.88
2022-08-07T00:33:32.804Z,96922.66
2022-08-07T00:36:00.180Z,96922.66
2022-08-07T00:38:31.112Z,96910.84
2022-08-07T00:40:59.377Z,96912.34
2022-08-07T00:44:00.471Z,96909.28
2022-08-07T00:46:12.841Z,96899.75
2022-08-07T00:48:42.298Z,96900.84
2022-08-07T00:51:10.375Z,96891.72
2022-08-07T00:53:38.903Z,96905.47
2022-08-07T00:56:17.503Z,96892.81
2022-08-07T00:58:47.167Z,96895.50
2022-08-07T01:01:16.914Z,96876.78
2022-08-07T01:03:55.864Z,96882.53
2022-08-07T01:06:25.239Z,96892.06
2022-08-07T01:08:53.817Z,96892.81
2022-08-07T01:12:09.273Z,96894.31
2022-08-07T01:14:09.315Z,96888.59
2022-08-07T01:16:37.112Z,96880.56
2022-08-07T01:19:18.334Z,96877.91
2022-08-07T01:21:48.214Z,96881.00
2022-08-07T01:24:18.764Z,96872.19
2022-08-07T01:26:51.989Z,96882.47
2022-08-07T01:29:22.361Z,96879.84
2022-08-07T01:31:49.997Z,96876.34
2022-08-07T01:34:17.985Z,96869.09
2022-08-07T01:36:52.856Z,96876.78
2022-08-07T01:39:39.635Z,96868.31
2022-08-07T01:42:37.843Z,96877.53
2022-08-07T01:45:05.303Z,96873.31
2022-08-07T01:48:19.204Z,96872.19
2022-08-07T01:50:30.394Z,96869.16
2022-08-07T01:52:59.229Z,96870.66
2022-08-07T01:55:29.525Z,96867.59
2022-08-07T01:58:27.388Z,96865.28
2022-08-07T02:01:10.147Z,96862.22
2022-08-07T02:03:51.068Z,96863.03
2022-08-07T02:06:31.879Z,96862.63
2022-08-07T02:09:03.742Z,96866.00
2022-08-07T02:12:03.704Z,96860.28
2022-08-07T02:14:40.304Z,96865.25
2022-08-07T02:17:09.680Z,96848.44
2022-08-07T02:20:04.660Z,96862.19
2022-08-07T02:22:26.993Z,96854.94
2022-08-07T02:24:57.227Z,96842.69
2022-08-07T02:27:34.441Z,96851.53
2022-08-07T02:30:03.555Z,96850.31
2022-08-07T02:32:36.241Z,96852.94
2022-08-07T02:35:09.173Z,96859.09
2022-08-07T02:37:43.908Z,96856.78
2022-08-07T02:40:30.910Z,96851.75
2022-08-07T02:42:59.233Z,96850.69
2022-08-07T02:45:58.129Z,96847.59
2022-08-07T02:48:15.685Z,96839.22
2022-08-07T02:50:44.803Z,96842.31
2022-08-07T02:53:27.441Z,96838.44
2022-08-07T02:56:02.637Z,96832.69
2022-08-07T02:58:33.854Z,96831.91
2022-08-07T03:01:03.114Z,96829.56
2022-08-07T03:03:49.130Z,96830.75
2022-08-07T03:06:25.471Z,96828.44
2022-08-07T03:08:58.876Z,96823.53
2022-08-07T03:11:28.217Z,96830.38
2022-08-07T03:13:57.721Z,96809.28
2022-08-07T03:16:30.434Z,96831.84
2022-08-07T03:18:59.271Z,96826.91
2022-08-07T03:21:26.601Z,96816.53
2022-08-07T03:24:20.158Z,96824.56
2022-08-07T03:26:51.357Z,96831.47
2022-08-07T03:29:29.603Z,96826.47
2022-08-07T03:31:56.696Z,96822.63
2022-08-07T03:34:27.171Z,96816.91
2022-08-07T03:36:55.013Z,96823.78
2022-08-07T03:39:59.373Z,96820.34
2022-08-07T03:42:13.101Z,96824.56
2022-08-07T03:44:40.171Z,96815.66
2022-08-07T03:47:14.129Z,96828.63
2022-08-07T03:49:51.927Z,96827.47
2022-08-07T03:52:22.715Z,96825.25
2022-08-07T03:54:55.300Z,96816.03
2022-08-07T03:58:17.977Z,96818.34
2022-08-07T04:00:14.330Z,96814.91
2022-08-07T04:02:47.457Z,96804.50
2022-08-07T04:05:16.069Z,96807.19
2022-08-07T04:07:48.339Z,96814.06
2022-08-07T04:10:18.948Z,96817.50
2022-08-07T04:12:48.799Z,96820.16
2022-08-07T04:15:17.658Z,96812.16
2022-08-07T04:18:32.064Z,96820.16
2022-08-07T04:20:31.956Z,96825.91
2022-08-07T04:23:06.203Z,96815.97
2022-08-07T04:25:39.430Z,96827.47
2022-08-07T04:28:08.435Z,96828.97
2022-08-07T04:30:43.637Z,96828.97
2022-08-07T04:33:24.316Z,96823.66
2022-08-07T04:35:53.207Z,96825.91
2022-08-07T04:38:20.999Z,96823.31
2022-08-07T04:40:52.575Z,96830.22
2022-08-07T04:44:09.706Z,96826.81
2022-08-07T04:46:25.855Z,96833.16
2022-08-07T04:49:25.445Z,96832.47
2022-08-07T04:52:14.160Z,96829.81
2022-08-07T04:58:10.345Z,96831.03
2022-08-07T04:58:42.444Z,96828.75
2022-08-07T05:01:13.340Z,96830.22
2022-08-07T05:04:07.909Z,96841.31
2022-08-07T05:06:51.611Z,96840.19
2022-08-07T05:09:45.335Z,96836.81
2022-08-07T05:12:27.402Z,96834.53
2022-08-07T05:15:23.325Z,96841.44
2022-08-07T05:17:56.552Z,96843.34
2022-08-07T05:20:29.341Z,96837.69
2022-08-07T05:23:02.073Z,96836.84
2022-08-07T05:25:54.333Z,96840.66
2022-08-07T05:28:22.830Z,96833.41
2022-08-07T05:30:52.607Z,96834.25
2022-08-07T05:33:21.534Z,96835.78
2022-08-07T05:35:51.774Z,96825.91
2022-08-07T05:38:58.046Z,96835.78
2022-08-07T05:41:14.549Z,96835.81
2022-08-07T05:44:08.493Z,96837.72
2022-08-07T05:46:37.308Z,96839.25
2022-08-07T05:49:12.040Z,96830.91
2022-08-07T05:51:40.726Z,96831.66
2022-08-07T05:54:29.814Z,96835.53
2022-08-07T05:56:57.159Z,96846.25
2022-08-07T05:59:26.353Z,96844.03
2022-08-07T06:01:57.178Z,96844.44
2022-08-07T06:04:30.053Z,96835.28
2022-08-07T06:07:03.955Z,96840.66
2022-08-07T06:10:04.157Z,96838.03
2022-08-07T06:12:21.159Z,96842.63
2022-08-07T06:15:05.639Z,96824.31
2022-08-07T06:17:38.044Z,96839.63
2022-08-07T06:20:06.044Z,96845.72
2022-08-07T06:22:42.307Z,96833.94
2022-08-07T06:25:28.813Z,96840.09
2022-08-07T06:28:04.231Z,96840.09
2022-08-07T06:30:37.326Z,96843.16
2022-08-07T06:33:09.930Z,96829.03
2022-08-07T06:35:47.555Z,96846.59
2022-08-07T06:38:30.362Z,96843.19
2022-08-07T06:40:59.182Z,96847.38
2022-08-07T06:43:27.534Z,96843.94
2022-08-07T06:46:06.353Z,96831.22
2022-08-07T06:48:38.899Z,96832.25
2022-08-07T06:51:11.357Z,96837.53
2022-08-07T06:55:29.104Z,96834.56
2022-08-07T06:56:48.450Z,96844.56
2022-08-07T07:00:17.544Z,96839.16
2022-08-07T07:02:14.495Z,96831.53
2022-08-07T07:05:00.946Z,96821.13
2022-08-07T07:07:59.124Z,96835.06
2022-08-07T07:10:14.687Z,96838.06
2022-08-07T07:12:53.791Z,96840.47
2022-08-07T07:15:36.095Z,96835.31
2022-08-07T07:18:14.172Z,96843.94
2022-08-07T07:21:04.818Z,96838.97
2022-08-07T07:24:10.987Z,96832.34
2022-08-07T07:26:36.856Z,96834.50
2022-08-07T07:29:56.080Z,96828.88
2022-08-07T07:31:56.839Z,96818.72
2022-08-07T07:34:30.973Z,96822.16
2022-08-07T07:37:05.392Z,96819.16
2022-08-07T07:39:54.320Z,96834.63
2022-08-07T07:42:32.480Z,96829.91
2022-08-07T07:45:05.683Z,96831.66
2022-08-07T07:47:42.900Z,96821.75
2022-08-07T07:50:34.581Z,96829.81
2022-08-07T07:53:20.462Z,96831.84
2022-08-07T07:55:58.006Z,96841.00
2022-08-07T07:58:36.935Z,96834.91
2022-08-07T08:02:01.737Z,96832.75
2022-08-07T08:04:10.835Z,96828.28
2022-08-07T08:06:50.863Z,96831.19
2022-08-07T08:09:20.629Z,96838.47
2022-08-07T08:12:01.913Z,96831.66
2022-08-07T08:14:34.155Z,96824.53
2022-08-07T08:17:32.400Z,96835.34
2022-08-07T08:20:17.199Z,96830.66
2022-08-07T08:23:03.106Z,96832.63
2022-08-07T08:25:54.470Z,96820.28
2022-08-07T08:28:37.408Z,96831.94
2022-08-07T08:31:13.856Z,96840.97
2022-08-07T08:33:49.613Z,96831.09
2022-08-07T08:36:29.948Z,96836.81
2022-08-07T08:38:59.992Z,96836.56
2022-08-07T08:41:57.109Z,96843.06
2022-08-07T08:44:44.654Z,96837.69
2022-08-07T08:47:52.198Z,96831.00
2022-08-07T08:50:39.108Z,96834.22
2022-08-07T08:53:06.270Z,96832.28
2022-08-07T08:55:53.224Z,96827.19
2022-08-07T08:58:34.097Z,96828.38
2022-08-07T09:01:15.334Z,96834.31
2022-08-07T09:03:52.957Z,96833.47
2022-08-07T09:06:35.687Z,96831.75
2022-08-07T09:09:36.968Z,96833.94
2022-08-07T09:12:37.853Z,96835.53
2022-08-07T09:16:21.513Z,96829.50
2022-08-07T09:18:13.584Z,96837.50
2022-08-07T09:21:01.374Z,96833.34
2022-08-07T09:24:33.684Z,96832.19
2022-08-07T09:26:53.157Z,96821.00
2022-08-07T09:30:06.179Z,96829.56
2022-08-07T09:32:40.269Z,96826.66
2022-08-07T09:36:01.158Z,96824.88
2022-08-07T09:38:10.418Z,96827.88
2022-08-07T09:41:36.485Z,96833.78
2022-08-07T09:47:25.693Z,96816.81
2022-08-07T09:47:59.451Z,96812.56
2022-08-07T09:50:45.571Z,96817.03
2022-08-07T09:53:15.739Z,96805.44
2022-08-07T09:56:03.122Z,96831.53
2022-08-07T09:58:34.183Z,96818.41
2022-08-07T10:01:51.099Z,96815.38
2022-08-07T10:04:33.594Z,96808.50
2022-08-07T10:07:24.503Z,96804.28
2022-08-07T10:10:07.033Z,96806.81
2022-08-07T10:12:53.332Z,96796.66
2022-08-07T10:15:44.078Z,96800.44
2022-08-07T10:18:19.177Z,96791.69
2022-08-07T10:21:20.095Z,96805.44
2022-08-07T10:24:22.577Z,96795.06
2022-08-07T10:26:59.974Z,96796.00
2022-08-07T10:29:51.393Z,96798.25
2022-08-07T10:32:36.455Z,96793.03
2022-08-07T10:35:25.592Z,96786.75
2022-08-07T10:38:21.364Z,96778.56
2022-08-07T10:41:07.750Z,96779.59
2022-08-07T10:43:48.220Z,96775.13
2022-08-07T10:46:30.049Z,96774.56
2022-08-07T10:49:13.649Z,96776.53
2022-08-07T10:52:01.748Z,96773.25
2022-08-07T10:54:53.128Z,96778.94
2022-08-07T10:57:56.295Z,96772.06
2022-08-07T11:00:39.217Z,96780.81
2022-08-07T11:03:19.761Z,96779.63
2022-08-07T11:06:11.341Z,96779.69
2022-08-07T11:09:11.226Z,96776.41
2022-08-07T11:12:01.265Z,96776.41
2022-08-07T11:14:44.046Z,96775.06
2022-08-07T11:17:43.282Z,96759.97
2022-08-07T11:20:20.218Z,96766.94
2022-08-07T11:23:09.364Z,96771.06
2022-08-07T11:26:13.035Z,96758.72
2022-08-07T11:28:53.409Z,96761.56
2022-08-07T11:31:41.757Z,96762.72
2022-08-07T11:34:31.814Z,96754.63
2022-08-07T11:37:05.038Z,96746.78
2022-08-07T11:40:03.527Z,96743.34
2022-08-07T11:42:37.061Z,96748.72
2022-08-07T11:45:37.376Z,96749.84
2022-08-07T11:48:31.430Z,96748.63
2022-08-07T11:51:40.688Z,96745.13
2022-08-07T11:54:54.643Z,96741.34
2022-08-07T11:58:00.225Z,96738.56
2022-08-07T12:00:36.862Z,96737.34
2022-08-07T12:03:46.006Z,96741.03
2022-08-07T12:10:08.596Z,96724.31
2022-08-07T12:12:46.476Z,96735.28
2022-08-07T12:15:35.930Z,96725.25
2022-08-07T12:18:30.809Z,96724.31
2022-08-07T12:22:36.614Z,96726.16
2022-08-07T12:24:38.162Z,96730.44
2022-08-07T12:27:18.562Z,96716.75
2022-08-07T12:30:01.612Z,96714.28
2022-08-07T12:32:37.968Z,96711.09
2022-08-07T12:35:09.590Z,96711.06
2022-08-07T12:38:11.467Z,96692.94
2022-08-07T12:40:50.112Z,96704.94
2022-08-07T12:44:02.942Z,96701.88
2022-08-07T12:46:26.184Z,96703.91
2022-08-07T12:49:25.486Z,96694.69
2022-08-07T12:52:14.270Z,96704.00
2022-08-07T12:55:05.328Z,96697.69
2022-08-07T12:57:59.295Z,96693.41
2022-08-07T13:00:35.734Z,96694.13
2022-08-07T13:03:56.349Z,96688.31
2022-08-07T13:06:29.516Z,96681.31
2022-08-07T13:09:00.107Z,96685.78
2022-08-07T13:12:02.242Z,96681.84
2022-08-07T13:14:52.598Z,96688.63
2022-08-07T13:17:40.979Z,96676.97
2022-08-07T13:20:30.756Z,96673.78
2022-08-07T13:24:02.146Z,96670.47
2022-08-07T13:26:18.407Z,96667.13
2022-08-07T13:28:57.961Z,96664.84
2022-08-07T13:32:23.745Z,96668.19
2022-08-07T13:35:03.298Z,96676.63
2022-08-07T13:37:58.866Z,96663.00
2022-08-07T13:40:36.736Z,96660.31
2022-08-07T13:43:12.344Z,96660.09
2022-08-07T13:46:12.527Z,96664.75
2022-08-07T13:48:34.508Z,96652.75
2022-08-07T13:51:28.125Z,96661.19
2022-08-07T13:54:00.091Z,96657.16
2022-08-07T13:56:36.257Z,96657.06
2022-08-07T13:59:24.358Z,96635.84
2022-08-07T14:02:03.754Z,96643.88
2022-08-07T14:04:35.718Z,96645.78
2022-08-07T14:07:09.297Z,96642.25
2022-08-07T14:10:12.468Z,96644.94
2022-08-07T14:13:02.843Z,96641.53
2022-08-07T14:15:39.706Z,96629.09
2022-08-07T14:18:29.035Z,96639.19
2022-08-07T14:21:20.737Z,96648.09
2022-08-07T14:24:03.607Z,96647.78
2022-08-07T14:26:50.607Z,96646.50
2022-08-07T14:30:06.614Z,96645.28
2022-08-07T14:32:12.512Z,96644.19
2022-08-07T14:34:47.037Z,96636.44
2022-08-07T14:37:17.284Z,96634.72
2022-08-07T14:40:16.375Z,96642.91
2022-08-07T14:42:33.840Z,96651.13
2022-08-07T14:45:21.584Z,96640.78
2022-08-07T14:47:51.097Z,96642.28
2022-08-07T14:50:20.406Z,96645.91
2022-08-07T14:52:50.477Z,96637.50
2022-08-07T14:55:18.674Z,96631.66
2022-08-07T14:57:58.053Z,96641.41
2022-08-07T15:00:29.965Z,96636.31
2022-08-07T15:03:19.860Z,96636.50
2022-08-07T15:05:54.435Z,96628.50
2022-08-07T15:08:33.764Z,96624.16
2022-08-07T15:11:08.537Z,96619.84
2022-08-07T15:13:41.186Z,96621.03
2022-08-07T15:16:14.662Z,96620.53
2022-08-07T15:18:48.548Z,96622.03
2022-08-07T15:21:58.772Z,96627.31
2022-08-07T15:25:15.838Z,96627.50
2022-08-07T15:27:06.123Z,96627.00
2022-08-07T15:30:04.384Z,96629.97
2022-08-07T15:36:00.598Z,96623.59
2022-08-07T15:38:30.268Z,96614.56
2022-08-07T15:41:22.726Z,96616.41
2022-08-07T15:43:53.477Z,96625.91
2022-08-07T15:46:32.508Z,96616.28
2022-08-07T15:49:15.260Z,96613.41
2022-08-07T15:54:30.804Z,96609.31
2022-08-07T15:57:04.991Z,96605.09
2022-08-07T15:59:39.603Z,96605.75
2022-08-07T16:02:27.375Z,96601.47
2022-08-07T16:05:15.167Z,96593.25
2022-08-07T16:08:32.990Z,96596.72
2022-08-07T16:10:36.592Z,96595.72
2022-08-07T16:13:39.533Z,96598.56
2022-08-07T16:16:47.900Z,96589.06
2022-08-07T16:19:15.928Z,96594.38
2022-08-07T16:22:37.697Z,96593.53
2022-08-07T16:25:55.506Z,96591.69
2022-08-07T16:29:18.500Z,96588.81
2022-08-07T16:32:02.651Z,96586.63
2022-08-07T16:34:48.076Z,96587.59
2022-08-07T16:38:03.786Z,96588.97
2022-08-07T16:40:33.844Z,96585.81
2022-08-07T16:43:23.410Z,96590.47
2022-08-07T16:47:09.545Z,96590.53
2022-08-07T16:50:20.119Z,96584.66
2022-08-07T16:54:02.567Z,96587.41
2022-08-07T16:56:49.784Z,96587.06
2022-08-07T16:59:58.125Z,96592.28
2022-08-07T17:03:06.003Z,96594.22
2022-08-07T17:06:30.245Z,96597.03
2022-08-07T17:09:09.215Z,96584.91
2022-08-07T17:12:05.196Z,96591.13
2022-08-07T17:14:56.345Z,96595.91
2022-08-07T17:17:46.446Z,96595.16
2022-08-07T17:20:35.518Z,96597.22
2022-08-07T17:23:32.521Z,96594.19
2022-08-07T17:26:22.938Z,96607.66
2022-08-07T17:29:04.487Z,96606.22
2022-08-07T17:32:02.556Z,96601.00
2022-08-07T17:38:33.440Z,96584.44
2022-08-07T17:42:04.500Z,96604.06
2022-08-07T17:44:33.308Z,96606.94
2022-08-07T17:58:31.619Z,96616.78
2022-08-07T18:01:02.759Z,96610.72
2022-08-07T18:04:07.509Z,96612.66
2022-08-07T18:07:20.063Z,96610.16
2022-08-07T18:10:07.426Z,96605.59
2022-08-07T18:12:58.679Z,96606.44
2022-08-07T18:15:33.042Z,96605.88
2022-08-07T18:18:46.131Z,96615.97
2022-08-07T18:21:38.336Z,96612.25
2022-08-07T18:24:33.571Z,96616.50
2022-08-07T18:27:39.292Z,96617.03
2022-08-07T18:30:31.920Z,96621.66
2022-08-07T18:33:17.925Z,96615.69
2022-08-07T18:36:08.139Z,96622.72
2022-08-07T18:38:58.180Z,96628.88
2022-08-07T18:41:54.148Z,96633.97
2022-08-07T18:44:29.283Z,96628.72
2022-08-07T18:47:08.017Z,96629.22
2022-08-07T18:50:37.991Z,96641.53
2022-08-07T18:53:12.717Z,96633.66
2022-08-07T18:56:08.447Z,96643.25
2022-08-07T18:59:47.208Z,96643.03
2022-08-07T19:02:19.091Z,96654.91
2022-08-07T19:05:10.119Z,96659.09
2022-08-07T19:08:18.680Z,96664.84
2022-08-07T19:11:35.244Z,96667.22
2022-08-07T19:14:17.053Z,96677.22
2022-08-07T19:17:04.802Z,96685.66
2022-08-07T19:19:48.742Z,96687.56
2022-08-07T19:22:30.821Z,96695.63
2022-08-07T19:24:58.478Z,96695.25
2022-08-07T19:29:02.950Z,96691.50
2022-08-07T19:31:06.199Z,96694.22
2022-08-07T19:33:13.144Z,96698.06
2022-08-07T19:35:46.234Z,96706.03
2022-08-07T19:38:17.667Z,96702.59
2022-08-07T19:40:49.535Z,96698.75
2022-08-07T19:43:44.008Z,96709.81
2022-08-07T19:47:00.998Z,96714.78
2022-08-07T19:49:58.346Z,96707.13
2022-08-07T19:52:22.618Z,96718.25
2022-08-07T19:54:56.622Z,96719.38
2022-08-07T19:58:01.398Z,96717.47
2022-08-07T20:00:28.009Z,96723.25
2022-08-07T20:03:06.022Z,96718.66
2022-08-07T20:06:01.995Z,96716.00
2022-08-07T20:08:33.955Z,96711.06
2022-08-07T20:11:10.127Z,96717.16
2022-08-07T20:13:55.311Z,96713.75
2022-08-07T20:16:34.747Z,96721.03
2022-08-07T20:19:10.631Z,96704.28
2022-08-07T20:21:42.022Z,96708.16
2022-08-07T20:24:35.757Z,96710.78
2022-08-07T20:27:09.114Z,96711.97
2022-08-07T20:29:57.549Z,96717.34
2022-08-07T20:32:43.010Z,96713.16
2022-08-07T20:35:17.802Z,96703.63
2022-08-07T20:37:55.666Z,96718.94
2022-08-07T20:40:31.525Z,96718.94
2022-08-07T20:43:02.221Z,96712.84
2022-08-07T20:46:24.233Z,96702.94
2022-08-07T20:48:28.564Z,96711.72
2022-08-07T20:50:59.473Z,96705.66
2022-08-07T20:54:04.296Z,96707.19
2022-08-07T20:56:16.052Z,96697.28
2022-08-07T20:58:47.979Z,96711.75
2022-08-07T21:01:19.947Z,96707.22
2022-08-07T21:04:13.112Z,96693.84
2022-08-07T21:06:42.424Z,96687.38
2022-08-07T21:09:16.374Z,96699.97
2022-08-07T21:11:50.997Z,96687.38
2022-08-07T21:14:33.985Z,96691.59
2022-08-07T21:18:01.819Z,96691.63
2022-08-07T21:20:05.052Z,96689.34
2022-08-07T21:22:54.711Z,96690.88
2022-08-07T21:26:01.489Z,96686.31
2022-08-07T21:28:49.900Z,96687.84
2022-08-07T21:32:10.757Z,96684.41
2022-08-07T21:34:48.552Z,96682.50
2022-08-07T21:37:25.805Z,96686.69
2022-08-07T21:40:06.278Z,96699.69
2022-08-07T21:42:48.504Z,96693.97
2022-08-07T21:46:03.385Z,96693.97
2022-08-07T21:48:29.075Z,96698.94
2022-08-07T21:51:32.228Z,96698.16
2022-08-07T21:54:27.586Z,96701.16
2022-08-07T21:57:30.934Z,96709.13
2022-08-07T22:00:21.999Z,96698.44
2022-08-07T22:03:03.630Z,96704.56
2022-08-07T22:05:45.409Z,96700.31
2022-08-07T22:08:14.345Z,96710.25
2022-08-07T22:10:45.881Z,96712.91
2022-08-07T22:13:14.398Z,96713.25
2022-08-07T22:16:42.750Z,96720.13
2022-08-07T22:18:54.379Z,96714.81
2022-08-07T22:21:26.192Z,96724.75
2022-08-07T22:24:17.521Z,96722.09
2022-08-07T22:26:56.652Z,96720.19
2022-08-07T22:29:33.773Z,96714.47
2022-08-07T22:32:06.407Z,96722.84
2022-08-07T22:34:53.485Z,96723.59
2022-08-07T22:38:03.155Z,96720.16
2022-08-07T22:40:59.834Z,96730.44
2022-08-07T22:43:40.858Z,96715.56
2022-08-07T22:47:03.978Z,96723.59
2022-08-07T22:49:37.882Z,96719.75
2022-08-07T22:52:37.446Z,96706.78
2022-08-07T22:55:22.708Z,96706.78
2022-08-07T22:57:55.816Z,96715.94
2022-08-07T23:00:31.299Z,96715.91
2022-08-07T23:03:16.289Z,96709.03
2022-08-07T23:06:09.741Z,96707.50
2022-08-07T23:09:34.589Z,96713.22
2022-08-07T23:12:12.369Z,96706.34
2022-08-07T23:16:06.482Z,96716.56
2022-08-07T23:18:32.075Z,96715.78
2022-08-07T23:21:17.396Z,96716.16
2022-08-07T23:24:06.120Z,96715.41
2022-08-07T23:26:50.579Z,96721.84
2022-08-07T23:30:36.002Z,96722.97
2022-08-07T23:34:34.503Z,96722.56
2022-08-07T23:37:23.632Z,96712.66
2022-08-07T23:40:20.658Z,96716.47
2022-08-07T23:43:00.798Z,96703.88
2022-08-07T23:46:03.229Z,96705.75
2022-08-07T23:48:52.557Z,96710.34
2022-08-07T23:52:58.763Z,96701.22
2022-08-07T23:54:45.884Z,96698.56
2022-08-07T23:57:27.690Z,96695.88
